Scroll down
FLIGHT INFORMATION
Cargolux Airlines International

CLX9794

At Arrival Gate

KATL
 ELLX
DATE: 2020-07-22
GATE: SC1
GATE DEPARTURE: 02:25
TAKEOFF: 02:38
DATE: 2020-07-22
GATE:  -
LANDING: 10:14
GATE ARRIVAL: 10:20
FLIGHT DATA
Crew: 
Speed: 
519 kts
Altitude: 
37,045 ft
Stage Length: 
3,927.4 nm
Block Time: 
7.9 hrs
Flight Time: 
7.6 hrs
Fuel Used: 
173,556 lb
Cleared Route: KATL FUTBL ZALLE GGOLF JACCC SHUTT BFOUT KELLN AHN PSK ESL PSB CFB CABCI MIILS ALLRY 5150N 5240N 5330N 5320N MALOT GISTI SLANY STU LUFTU DIKAS DEZZU GAVGO KENET CPT NORRY LINDY GOXUL BIG DIKVU LAVRI EMKAD UMTUM DVR KONAN KOK REMBA ELLX
TRACK DATA
50,000 ft 1,000 kts
AIRCRAFT INFO AND CUMULATIVE STATS
Aircraft Type: 
B744F
Registration: 
SELCAL: 
FQDP
MSN/LN: 
34150 / 1356
Total Flights: 
4
Total Block Time: 
19.5 hrs
Total Flight Time: 
18.5 hrs
Total Fuel Time: 
456,413 lb
DATALINK LOG | Newest first | Current as of: 2020-11-25 19:47:00
LABEL SEQUENCE CONTENT Dn/Up
QD284210:20 72.7▼ Dn
QC240410:14▼ Dn
2U0002ELLX 230350Z 03010KT CAVOK 14/07 Q1019 NOSIG▲ Up
2S0001ELLX▼ Dn
QB461102:38▼ Dn
QA325802:25 246.5▼ Dn
2U2857KATL 222152Z 22004KT 10SM SCT050TCU SCT100 BKN200 BKN250 31/21 A3007 RMK AO2 SLP172 CB DSNT NE TCU NW-N DSNT NE-SE-SW-W T03110211▲ Up
2S2856KATL▼ Dn
A32856CLEARED TO ELLX VIA JACCC2 KELLN AHN PSK ESL PSB CFB CABCI MIILS N385B ALLRY NATY GISTI SLANY UL9 KONAN UL607 KOK REMBA REMB1D. SQUAWK .▲ Up
Q02754[LINK ACK]▲ Up
Q02754[LINK TEST]▼ Dn


AIRCRAFT HISTORY
FLIGHT DATE FLIGHT NO. ORIGIN DESTINATION CLEARED ROUTE BLOCK TIME FLIGHT TIME FUEL USED PILOT
2020-07-29CLX1320KJFK KORD KJFK COATE LAAYK YYOST DGRAF LHY45 MTCAF REBBL REXXY HERBA RAAKK CHAAP YARRK RRONS BOOTT DIXSN EMMMA KORD2 hrs1.7 hrs48,424 lbmike teague
2020-07-27CLX1320ELLX KJFK ELLX DIK DEMUL RITAX REMBA GILOM BUB NIK DENUT LUMEN BULAM DIBLI RAPIX SUNUP TEBRA KOPUL UNSAD NILON GILDA LAM WELIN SAPCO TNT RODOL KOLID BILVO TUPEM REMSI NINEB MASOP IDGAS IBTES LIMKA MAGEE PIKIL 5720N 5730N 5640N 5550N LOMSI DANOL ENE KJFK7.7 hrs7.4 hrs187,656 lbmike teague
2020-07-22CLX9794KATL ELLX KATL FUTBL ZALLE GGOLF JACCC SHUTT BFOUT KELLN AHN PSK ESL PSB CFB CABCI MIILS ALLRY 5150N 5240N 5330N 5320N MALOT GISTI SLANY STU LUFTU DIKAS DEZZU GAVGO KENET CPT NORRY LINDY GOXUL BIG DIKVU LAVRI EMKAD UMTUM DVR KONAN KOK REMBA ELLX7.9 hrs7.6 hrs173,556 lbMichael Roth
2020-07-19CLX1320KJFK KATL KJFK RBV COPES BYRDD HAAGN PENSY EMI CSN MOL FLASK KATL2.1 hrs1.7 hrs46,777 lbmike teague